Weather at Andi Jemma Airport

Public forecast

Using degrees Celsius for public forecast. Weather courtesy of forecast.io.

Closest aviation weather report (METAR) to Andi Jemma Airport

Closest report is Sultan Aji Muhammad Sulaiman Sepinggan International Airport, 219.9 nm (407.2 km) WNW.

2024/07/17 12:00 (retrieved 37 minutes ago)

WALL 171200Z 28002KT 9000 FEW018 27/24 Q1009 NOSIG

Aviation forecast (TAF) for Andi Jemma Airport

2024/07/17 12:00 (retrieved 37 minutes ago)

TAF WAFM 171100Z 1712/1724 33003KT 5000 RA SCT016 BKN090 BECMG 1719/1721 00000KT 9000 NSW FEW017